Milan, Tennessee
Current Conditions -  °F | °C
As of 1:53 AM on Monday 24 Nov 2014 (Local Time) from KMKL Reporting Station
Few Clouds Few Clouds  
Wind Chill: 60°   Ceiling: Unl
Heat Index: 60°   Visibility: 10mi
Dew Point: 54°   Wind: 17mph
Humidity: 80%   Direction: 210°SSW
Pressure: 29.43"   Gusts: 26mph
Location:  35.92°N, 88.76°W
Report Text: KMKL 240753Z AUTO 21015G23KT 10SM FEW026 16/12 A2943 RMK AO2 SLP963 T01560122 $
Loading
Personal Weather Stations






























Interactive Weather Map New forecast layout! Learn more

10-Day Weather Forecast

Advertisements
Track Severe Weather on mobile